sensor_id;sensor_type;location;lat;lon;timestamp;pressure;altitude;pressure_sealevel;temperature;humidity
58056;BME280;53159;55.152;36.614;2022-07-18T00:00:52;99585.69;;;13.31;100.00
58056;BME280;53159;55.152;36.614;2022-07-18T00:03:18;99583.09;;;13.31;100.00
58056;BME280;53159;55.152;36.614;2022-07-18T00:05:45;99587.50;;;13.35;100.00
58056;BME280;53159;55.152;36.614;2022-07-18T00:08:12;99589.31;;;13.38;100.00
58056;BME280;53159;55.152;36.614;2022-07-18T00:10:38;99590.25;;;13.45;100.00
58056;BME280;53159;55.152;36.614;2022-07-18T00:13:06;99581.56;;;13.47;100.00
58056;BME280;53159;55.152;36.614;2022-07-18T00:15:33;99585.94;;;13.45;100.00
58056;BME280;53159;55.152;36.614;2022-07-18T00:18:02;99580.72;;;13.45;100.00
58056;BME280;53159;55.152;36.614;2022-07-18T00:20:29;99581.56;;;13.44;100.00
58056;BME280;53159;55.152;36.614;2022-07-18T00:22:56;99585.09;;;13.49;100.00
58056;BME280;53159;55.152;36.614;2022-07-18T00:25:24;99584.25;;;13.50;100.00
58056;BME280;53159;55.152;36.614;2022-07-18T00:27:51;99578.09;;;13.45;100.00
58056;BME280;53159;55.152;36.614;2022-07-18T00:30:17;99581.56;;;13.47;100.00
58056;BME280;53159;55.152;36.614;2022-07-18T00:32:45;99574.66;;;13.49;100.00
58056;BME280;53159;55.152;36.614;2022-07-18T00:35:12;99584.22;;;13.49;100.00
58056;BME280;53159;55.152;36.614;2022-07-18T00:37:38;99589.44;;;13.50;100.00
58056;BME280;53159;55.152;36.614;2022-07-18T00:40:05;99586.84;;;13.49;100.00
58056;BME280;53159;55.152;36.614;2022-07-18T00:42:33;99582.50;;;13.51;100.00
58056;BME280;53159;55.152;36.614;2022-07-18T00:44:59;99580.78;;;13.51;100.00
58056;BME280;53159;55.152;36.614;2022-07-18T00:47:26;99579.03;;;13.52;100.00
58056;BME280;53159;55.152;36.614;2022-07-18T00:49:53;99579.81;;;13.46;100.00
58056;BME280;53159;55.152;36.614;2022-07-18T00:52:20;99585.09;;;13.48;100.00
58056;BME280;53159;55.152;36.614;2022-07-18T00:54:49;99571.16;;;13.47;100.00
58056;BME280;53159;55.152;36.614;2022-07-18T00:57:15;99578.13;;;13.48;100.00
58056;BME280;53159;55.152;36.614;2022-07-18T00:59:43;99577.28;;;13.51;100.00
58056;BME280;53159;55.152;36.614;2022-07-18T01:02:31;99579.63;;;13.31;100.00
58056;BME280;53159;55.152;36.614;2022-07-18T01:04:58;99585.63;;;13.25;100.00
58056;BME280;53159;55.152;36.614;2022-07-18T01:07:25;99576.88;;;13.18;100.00
58056;BME280;53159;55.152;36.614;2022-07-18T01:09:52;99580.31;;;13.17;100.00
58056;BME280;53159;55.152;36.614;2022-07-18T01:12:19;99578.56;;;13.16;100.00
58056;BME280;53159;55.152;36.614;2022-07-18T01:14:47;99578.69;;;13.24;100.00
58056;BME280;53159;55.152;36.614;2022-07-18T01:17:16;99573.44;;;13.22;100.00
58056;BME280;53159;55.152;36.614;2022-07-18T01:19:43;99571.81;;;13.29;100.00
58056;BME280;53159;55.152;36.614;2022-07-18T01:22:12;99571.81;;;13.31;100.00
58056;BME280;53159;55.152;36.614;2022-07-18T01:24:40;99575.31;;;13.33;100.00
58056;BME280;53159;55.152;36.614;2022-07-18T01:27:07;99570.97;;;13.33;100.00
58056;BME280;53159;55.152;36.614;2022-07-18T01:29:34;99572.72;;;13.36;100.00
58056;BME280;53159;55.152;36.614;2022-07-18T01:32:09;99575.44;;;13.39;100.00
58056;BME280;53159;55.152;36.614;2022-07-18T01:34:37;99574.53;;;13.40;100.00
58056;BME280;53159;55.152;36.614;2022-07-18T01:37:05;99573.72;;;13.43;100.00
58056;BME280;53159;55.152;36.614;2022-07-18T01:39:32;99578.91;;;13.40;100.00
58056;BME280;53159;55.152;36.614;2022-07-18T01:42:02;99575.44;;;13.42;100.00
58056;BME280;53159;55.152;36.614;2022-07-18T01:44:29;99566.59;;;13.31;100.00
58056;BME280;53159;55.152;36.614;2022-07-18T01:46:56;99573.69;;;13.40;100.00
58056;BME280;53159;55.152;36.614;2022-07-18T01:49:24;99565.88;;;13.41;100.00
58056;BME280;53159;55.152;36.614;2022-07-18T01:51:53;99557.25;;;13.47;100.00
58056;BME280;53159;55.152;36.614;2022-07-18T01:54:23;99562.53;;;13.51;100.00
58056;BME280;53159;55.152;36.614;2022-07-18T01:56:53;99570.34;;;13.53;100.00
58056;BME280;53159;55.152;36.614;2022-07-18T01:59:19;99566.03;;;13.55;100.00
58056;BME280;53159;55.152;36.614;2022-07-18T02:01:48;99570.41;;;13.58;100.00
58056;BME280;53159;55.152;36.614;2022-07-18T02:04:16;99564.38;;;13.63;100.00
58056;BME280;53159;55.152;36.614;2022-07-18T02:06:46;99567.94;;;13.70;100.00
58056;BME280;53159;55.152;36.614;2022-07-18T02:09:12;99558.41;;;13.75;100.00
58056;BME280;53159;55.152;36.614;2022-07-18T02:11:39;99556.72;;;13.80;100.00
58056;BME280;53159;55.152;36.614;2022-07-18T02:14:06;99565.47;;;13.82;100.00
58056;BME280;53159;55.152;36.614;2022-07-18T02:16:34;99567.28;;;13.91;100.00
58056;BME280;53159;55.152;36.614;2022-07-18T02:19:01;99566.47;;;13.98;100.00
58056;BME280;53159;55.152;36.614;2022-07-18T02:21:29;99562.19;;;14.07;100.00
58056;BME280;53159;55.152;36.614;2022-07-18T02:23:56;99570.06;;;14.14;100.00
58056;BME280;53159;55.152;36.614;2022-07-18T02:26:22;99568.41;;;14.21;100.00
58056;BME280;53159;55.152;36.614;2022-07-18T02:28:50;99557.97;;;14.21;100.00
58056;BME280;53159;55.152;36.614;2022-07-18T02:31:16;99559.81;;;14.38;100.00
58056;BME280;53159;55.152;36.614;2022-07-18T02:33:43;99565.09;;;14.44;100.00
58056;BME280;53159;55.152;36.614;2022-07-18T02:36:10;99556.38;;;14.42;100.00
58056;BME280;53159;55.152;36.614;2022-07-18T02:38:37;99567.69;;;14.45;100.00
58056;BME280;53159;55.152;36.614;2022-07-18T02:41:05;99561.66;;;14.49;100.00
58056;BME280;53159;55.152;36.614;2022-07-18T02:43:32;99566.03;;;14.50;100.00
58056;BME280;53159;55.152;36.614;2022-07-18T02:45:58;99560.78;;;14.50;100.00
58056;BME280;53159;55.152;36.614;2022-07-18T02:48:27;99565.13;;;14.51;100.00
58056;BME280;53159;55.152;36.614;2022-07-18T02:50:56;99557.34;;;14.53;100.00
58056;BME280;53159;55.152;36.614;2022-07-18T02:53:23;99566.06;;;14.57;100.00
58056;BME280;53159;55.152;36.614;2022-07-18T02:55:50;99572.19;;;14.62;100.00
58056;BME280;53159;55.152;36.614;2022-07-18T02:58:17;99567.00;;;14.65;100.00
58056;BME280;53159;55.152;36.614;2022-07-18T03:00:44;99567.91;;;14.67;100.00
58056;BME280;53159;55.152;36.614;2022-07-18T03:03:12;99567.03;;;14.71;100.00
58056;BME280;53159;55.152;36.614;2022-07-18T03:05:38;99570.56;;;14.76;100.00
58056;BME280;53159;55.152;36.614;2022-07-18T03:08:05;99562.75;;;14.81;100.00
58056;BME280;53159;55.152;36.614;2022-07-18T03:10:32;99560.16;;;14.82;100.00
58056;BME280;53159;55.152;36.614;2022-07-18T03:12:59;99564.50;;;14.82;100.00
58056;BME280;53159;55.152;36.614;2022-07-18T03:15:26;99563.66;;;14.89;100.00
58056;BME280;53159;55.152;36.614;2022-07-18T03:17:52;99565.47;;;14.95;100.00
58056;BME280;53159;55.152;36.614;2022-07-18T03:20:19;99563.75;;;15.11;100.00
58056;BME280;53159;55.152;36.614;2022-07-18T03:22:46;99564.72;;;15.28;100.00
58056;BME280;53159;55.152;36.614;2022-07-18T03:25:15;99564.75;;;15.39;100.00
58056;BME280;53159;55.152;36.614;2022-07-18T03:27:41;99557.81;;;15.54;100.00
58056;BME280;53159;55.152;36.614;2022-07-18T03:30:08;99563.97;;;15.70;100.00
58056;BME280;53159;55.152;36.614;2022-07-18T03:32:35;99562.25;;;15.83;100.00
58056;BME280;53159;55.152;36.614;2022-07-18T03:35:02;99568.41;;;16.11;100.00
58056;BME280;53159;55.152;36.614;2022-07-18T03:37:29;99559.69;;;16.23;100.00
58056;BME280;53159;55.152;36.614;2022-07-18T03:39:56;99568.41;;;16.40;100.00
58056;BME280;53159;55.152;36.614;2022-07-18T03:42:24;99564.06;;;16.47;100.00
58056;BME280;53159;55.152;36.614;2022-07-18T03:44:51;99564.88;;;16.62;100.00
58056;BME280;53159;55.152;36.614;2022-07-18T03:47:18;99554.38;;;16.75;100.00
58056;BME280;53159;55.152;36.614;2022-07-18T03:49:45;99556.94;;;17.10;100.00
58056;BME280;53159;55.152;36.614;2022-07-18T03:52:11;99554.22;;;17.28;100.00
58056;BME280;53159;55.152;36.614;2022-07-18T03:54:38;99557.63;;;17.47;100.00
58056;BME280;53159;55.152;36.614;2022-07-18T03:57:05;99549.78;;;17.46;95.96
58056;BME280;53159;55.152;36.614;2022-07-18T03:59:32;99548.00;;;17.54;97.08
58056;BME280;53159;55.152;36.614;2022-07-18T04:02:02;99557.59;;;17.55;96.90
58056;BME280;53159;55.152;36.614;2022-07-18T04:04:29;99556.72;;;17.54;95.73
58056;BME280;53159;55.152;36.614;2022-07-18T04:06:56;99566.34;;;17.54;94.92
58056;BME280;53159;55.152;36.614;2022-07-18T04:09:28;99561.13;;;17.52;95.17
58056;BME280;53159;55.152;36.614;2022-07-18T04:11:56;99562.84;;;17.55;95.30
58056;BME280;53159;55.152;36.614;2022-07-18T04:14:23;99562.00;;;17.48;93.01
58056;BME280;53159;55.152;36.614;2022-07-18T04:16:51;99563.69;;;17.62;93.11
58056;BME280;53159;55.152;36.614;2022-07-18T04:19:18;99555.75;;;17.69;93.30
58056;BME280;53159;55.152;36.614;2022-07-18T04:21:45;99561.88;;;17.75;93.99
58056;BME280;53159;55.152;36.614;2022-07-18T04:24:11;99552.16;;;17.84;93.24
58056;BME280;53159;55.152;36.614;2022-07-18T04:26:39;99560.88;;;17.94;91.58
58056;BME280;53159;55.152;36.614;2022-07-18T04:29:06;99561.63;;;18.10;90.78
58056;BME280;53159;55.152;36.614;2022-07-18T04:31:32;99556.34;;;18.18;88.25
58056;BME280;53159;55.152;36.614;2022-07-18T04:33:59;99551.88;;;18.26;87.55
58056;BME280;53159;55.152;36.614;2022-07-18T04:36:27;99557.13;;;18.29;85.57
58056;BME280;53159;55.152;36.614;2022-07-18T04:38:53;99563.16;;;18.39;84.74
58056;BME280;53159;55.152;36.614;2022-07-18T04:41:20;99560.63;;;18.28;82.96
58056;BME280;53159;55.152;36.614;2022-07-18T04:43:49;99553.31;;;18.61;81.38
58056;BME280;53159;55.152;36.614;2022-07-18T04:46:16;99543.50;;;18.76;79.78
58056;BME280;53159;55.152;36.614;2022-07-18T04:48:43;99546.31;;;19.38;80.50
58056;BME280;53159;55.152;36.614;2022-07-18T04:51:10;99548.16;;;19.95;78.19
58056;BME280;53159;55.152;36.614;2022-07-18T04:53:37;99545.13;;;20.69;74.98
58056;BME280;53159;55.152;36.614;2022-07-18T04:56:04;99530.03;;;21.22;74.69
58056;BME280;53159;55.152;36.614;2022-07-18T04:58:30;99529.94;;;21.68;71.51
58056;BME280;53159;55.152;36.614;2022-07-18T05:00:59;99528.41;;;22.31;70.39
58056;BME280;53159;55.152;36.614;2022-07-18T05:03:27;99524.53;;;22.46;66.09
58056;BME280;53159;55.152;36.614;2022-07-18T05:05:53;99522.88;;;22.75;65.56
58056;BME280;53159;55.152;36.614;2022-07-18T05:08:20;99520.44;;;22.99;62.42
58056;BME280;53159;55.152;36.614;2022-07-18T05:10:47;99524.25;;;23.20;64.12
58056;BME280;53159;55.152;36.614;2022-07-18T05:13:14;99522.75;;;23.41;61.19
58056;BME280;53159;55.152;36.614;2022-07-18T05:15:41;99521.94;;;23.67;61.93
58056;BME280;53159;55.152;36.614;2022-07-18T05:18:08;99527.44;;;23.90;59.85
58056;BME280;53159;55.152;36.614;2022-07-18T05:20:35;99526.84;;;24.08;59.23
58056;BME280;53159;55.152;36.614;2022-07-18T05:23:02;99535.22;;;23.96;59.86
58056;BME280;53159;55.152;36.614;2022-07-18T05:25:30;99522.41;;;24.36;57.34
58056;BME280;53159;55.152;36.614;2022-07-18T05:27:56;99532.81;;;24.67;52.83
58056;BME280;53159;55.152;36.614;2022-07-18T05:30:23;99526.72;;;24.38;53.90
58056;BME280;53159;55.152;36.614;2022-07-18T05:32:52;99528.97;;;24.24;54.61
58056;BME280;53159;55.152;36.614;2022-07-18T05:35:20;99530.97;;;24.17;54.50
58056;BME280;53159;55.152;36.614;2022-07-18T05:37:47;99527.50;;;24.15;55.19
58056;BME280;53159;55.152;36.614;2022-07-18T05:40:15;99528.06;;;23.98;54.83
58056;BME280;53159;55.152;36.614;2022-07-18T05:42:43;99521.13;;;23.65;55.69
58056;BME280;53159;55.152;36.614;2022-07-18T05:45:11;99526.72;;;23.26;56.07
58056;BME280;53159;55.152;36.614;2022-07-18T05:47:38;99533.81;;;23.26;56.86
58056;BME280;53159;55.152;36.614;2022-07-18T05:50:06;99530.94;;;23.02;57.54
58056;BME280;53159;55.152;36.614;2022-07-18T05:52:34;99519.66;;;22.95;59.99
58056;BME280;53159;55.152;36.614;2022-07-18T05:55:03;99518.97;;;22.89;59.51
58056;BME280;53159;55.152;36.614;2022-07-18T05:57:31;99521.06;;;22.77;59.59
58056;BME280;53159;55.152;36.614;2022-07-18T05:59:58;99530.44;;;22.56;57.89
58056;BME280;53159;55.152;36.614;2022-07-18T06:02:24;99526.53;;;22.35;58.85
58056;BME280;53159;55.152;36.614;2022-07-18T06:04:52;99518.84;;;22.26;58.94
58056;BME280;53159;55.152;36.614;2022-07-18T06:07:19;99524.31;;;22.19;58.51
58056;BME280;53159;55.152;36.614;2022-07-18T06:09:46;99523.03;;;22.00;59.78
58056;BME280;53159;55.152;36.614;2022-07-18T06:12:15;99524.06;;;21.94;59.45
58056;BME280;53159;55.152;36.614;2022-07-18T06:14:42;99525.06;;;21.88;59.43
58056;BME280;53159;55.152;36.614;2022-07-18T06:17:08;99524.22;;;21.88;60.29
58056;BME280;53159;55.152;36.614;2022-07-18T06:19:35;99517.88;;;21.94;61.02
58056;BME280;53159;55.152;36.614;2022-07-18T06:22:02;99515.19;;;21.97;59.87
58056;BME280;53159;55.152;36.614;2022-07-18T06:24:28;99512.47;;;21.62;58.46
58056;BME280;53159;55.152;36.614;2022-07-18T06:26:55;99501.53;;;21.78;60.14
58056;BME280;53159;55.152;36.614;2022-07-18T06:29:22;99508.47;;;21.83;61.47
58056;BME280;53159;55.152;36.614;2022-07-18T06:31:49;99499.34;;;21.95;60.73
58056;BME280;53159;55.152;36.614;2022-07-18T06:34:17;99499.47;;;21.90;59.64
58056;BME280;53159;55.152;36.614;2022-07-18T06:36:43;99493.56;;;21.79;60.42
58056;BME280;53159;55.152;36.614;2022-07-18T06:39:10;99491.66;;;21.86;62.84
58056;BME280;53159;55.152;36.614;2022-07-18T06:41:39;99496.16;;;21.82;60.77
58056;BME280;53159;55.152;36.614;2022-07-18T06:44:13;99492.66;;;21.80;59.11
58056;BME280;53159;55.152;36.614;2022-07-18T06:46:41;99494.59;;;22.10;60.36
58056;BME280;53159;55.152;36.614;2022-07-18T06:49:08;99492.84;;;22.09;58.64
58056;BME280;53159;55.152;36.614;2022-07-18T06:51:35;99496.19;;;22.17;58.20
58056;BME280;53159;55.152;36.614;2022-07-18T06:54:03;99483.78;;;22.19;57.61
58056;BME280;53159;55.152;36.614;2022-07-18T06:56:30;99481.91;;;22.24;57.73
58056;BME280;53159;55.152;36.614;2022-07-18T06:58:57;99484.84;;;22.12;57.71
58056;BME280;53159;55.152;36.614;2022-07-18T07:01:23;99477.41;;;22.28;57.48
58056;BME280;53159;55.152;36.614;2022-07-18T07:03:51;99467.66;;;22.63;60.22
58056;BME280;53159;55.152;36.614;2022-07-18T07:06:18;99475.16;;;22.78;58.58
58056;BME280;53159;55.152;36.614;2022-07-18T07:08:45;99469.28;;;22.68;58.33
58056;BME280;53159;55.152;36.614;2022-07-18T07:11:13;99477.41;;;22.61;55.66
58056;BME280;53159;55.152;36.614;2022-07-18T07:13:40;99477.22;;;22.67;56.15
58056;BME280;53159;55.152;36.614;2022-07-18T07:16:06;99471.16;;;22.30;54.35
58056;BME280;53159;55.152;36.614;2022-07-18T07:18:35;99477.22;;;22.67;55.71
58056;BME280;53159;55.152;36.614;2022-07-18T07:21:01;99475.69;;;22.60;54.12
58056;BME280;53159;55.152;36.614;2022-07-18T07:23:30;99472.34;;;22.53;55.64
58056;BME280;53159;55.152;36.614;2022-07-18T07:25:56;99470.28;;;22.30;55.47
58056;BME280;53159;55.152;36.614;2022-07-18T07:28:23;99474.59;;;22.32;55.22
58056;BME280;53159;55.152;36.614;2022-07-18T07:30:51;99481.91;;;22.57;55.49
58056;BME280;53159;55.152;36.614;2022-07-18T07:33:19;99482.06;;;22.52;54.57
58056;BME280;53159;55.152;36.614;2022-07-18T07:35:46;99479.03;;;22.32;53.62
58056;BME280;53159;55.152;36.614;2022-07-18T07:38:12;99478.31;;;22.27;52.84
58056;BME280;53159;55.152;36.614;2022-07-18T07:40:46;99483.13;;;22.11;54.10
58056;BME280;53159;55.152;36.614;2022-07-18T07:43:16;99480.22;;;22.20;53.87
58056;BME280;53159;55.152;36.614;2022-07-18T07:45:46;99481.00;;;22.25;55.45
58056;BME280;53159;55.152;36.614;2022-07-18T07:48:15;99481.63;;;22.33;58.75
58056;BME280;53159;55.152;36.614;2022-07-18T07:50:42;99476.66;;;22.56;58.39
58056;BME280;53159;55.152;36.614;2022-07-18T07:53:09;99473.50;;;22.74;56.71
58056;BME280;53159;55.152;36.614;2022-07-18T07:55:36;99474.88;;;22.88;57.50
58056;BME280;53159;55.152;36.614;2022-07-18T07:58:03;99469.41;;;22.94;55.00
58056;BME280;53159;55.152;36.614;2022-07-18T08:00:32;99476.50;;;22.93;53.11
58056;BME280;53159;55.152;36.614;2022-07-18T08:03:02;99469.53;;;22.91;52.83
58056;BME280;53159;55.152;36.614;2022-07-18T08:05:37;99468.50;;;22.95;55.52
58056;BME280;53159;55.152;36.614;2022-07-18T08:08:05;99470.19;;;22.97;57.70
58056;BME280;53159;55.152;36.614;2022-07-18T08:10:32;99468.22;;;23.04;55.69
58056;BME280;53159;55.152;36.614;2022-07-18T08:13:01;99473.34;;;23.10;56.94
58056;BME280;53159;55.152;36.614;2022-07-18T08:15:28;99455.41;;;23.22;56.74
58056;BME280;53159;55.152;36.614;2022-07-18T08:17:56;99462.78;;;23.40;54.69
58056;BME280;53159;55.152;36.614;2022-07-18T08:20:25;99449.81;;;23.31;54.16
58056;BME280;53159;55.152;36.614;2022-07-18T08:22:57;99456.88;;;23.30;53.13
58056;BME280;53159;55.152;36.614;2022-07-18T08:25:26;99455.28;;;23.53;54.74
58056;BME280;53159;55.152;36.614;2022-07-18T08:27:53;99441.84;;;23.59;54.37
58056;BME280;53159;55.152;36.614;2022-07-18T08:30:22;99445.97;;;23.68;54.09
58056;BME280;53159;55.152;36.614;2022-07-18T08:32:49;99445.47;;;23.57;52.66
58056;BME280;53159;55.152;36.614;2022-07-18T08:35:16;99447.34;;;23.25;51.39
58056;BME280;53159;55.152;36.614;2022-07-18T08:37:43;99442.72;;;23.31;53.09
58056;BME280;53159;55.152;36.614;2022-07-18T08:40:11;99448.16;;;23.55;52.82
58056;BME280;53159;55.152;36.614;2022-07-18T08:42:40;99437.28;;;23.06;50.81
58056;BME280;53159;55.152;36.614;2022-07-18T08:45:09;99428.53;;;23.04;50.29
58056;BME280;53159;55.152;36.614;2022-07-18T08:47:37;99423.38;;;23.29;51.43
58056;BME280;53159;55.152;36.614;2022-07-18T08:50:05;99415.84;;;23.44;51.51
58056;BME280;53159;55.152;36.614;2022-07-18T08:52:34;99418.00;;;23.59;53.02
58056;BME280;53159;55.152;36.614;2022-07-18T08:55:09;99417.50;;;23.20;53.88
58056;BME280;53159;55.152;36.614;2022-07-18T08:57:38;99410.41;;;23.22;55.52
58056;BME280;53159;55.152;36.614;2022-07-18T09:00:07;99411.59;;;23.10;55.43
58056;BME280;53159;55.152;36.614;2022-07-18T09:02:37;99405.91;;;22.94;56.10
58056;BME280;53159;55.152;36.614;2022-07-18T09:05:05;99398.81;;;22.94;57.24
58056;BME280;53159;55.152;36.614;2022-07-18T09:07:33;99400.13;;;22.81;56.02
58056;BME280;53159;55.152;36.614;2022-07-18T09:10:06;99396.41;;;22.86;56.61
58056;BME280;53159;55.152;36.614;2022-07-18T09:12:34;99396.84;;;22.73;56.90
58056;BME280;53159;55.152;36.614;2022-07-18T09:15:08;99397.84;;;22.68;54.76
58056;BME280;53159;55.152;36.614;2022-07-18T09:17:55;99404.31;;;22.58;54.13
58056;BME280;53159;55.152;36.614;2022-07-18T09:20:23;99404.13;;;22.64;53.56
58056;BME280;53159;55.152;36.614;2022-07-18T09:22:50;99398.06;;;22.61;54.08
58056;BME280;53159;55.152;36.614;2022-07-18T09:25:19;99403.69;;;22.50;52.91
58056;BME280;53159;55.152;36.614;2022-07-18T09:27:54;99399.84;;;22.60;54.00
58056;BME280;53159;55.152;36.614;2022-07-18T09:30:32;99405.69;;;22.72;54.89
58056;BME280;53159;55.152;36.614;2022-07-18T09:33:08;99395.63;;;22.84;54.13
58056;BME280;53159;55.152;36.614;2022-07-18T09:35:44;99397.97;;;22.94;54.28
58056;BME280;53159;55.152;36.614;2022-07-18T09:38:14;99401.16;;;23.05;54.21
58056;BME280;53159;55.152;36.614;2022-07-18T09:40:47;99392.97;;;23.13;51.16
58056;BME280;53159;55.152;36.614;2022-07-18T09:43:17;99392.44;;;23.01;53.25
58056;BME280;53159;55.152;36.614;2022-07-18T09:45:57;99387.47;;;23.21;53.16
58056;BME280;53159;55.152;36.614;2022-07-18T09:48:26;99377.69;;;23.23;52.23
58056;BME280;53159;55.152;36.614;2022-07-18T09:50:58;99382.44;;;23.40;52.93
58056;BME280;53159;55.152;36.614;2022-07-18T09:53:36;99383.31;;;23.40;52.15
58056;BME280;53159;55.152;36.614;2022-07-18T09:56:08;99385.63;;;23.23;50.57
58056;BME280;53159;55.152;36.614;2022-07-18T09:58:38;99385.16;;;23.38;51.45
58056;BME280;53159;55.152;36.614;2022-07-18T10:01:06;99385.19;;;23.37;51.86
58056;BME280;53159;55.152;36.614;2022-07-18T10:03:35;99386.97;;;23.36;50.77
58056;BME280;53159;55.152;36.614;2022-07-18T10:06:03;99382.22;;;23.19;49.90
58056;BME280;53159;55.152;36.614;2022-07-18T10:08:33;99370.72;;;23.20;50.34
58056;BME280;53159;55.152;36.614;2022-07-18T10:11:03;99364.72;;;23.13;52.06
58056;BME280;53159;55.152;36.614;2022-07-18T10:13:33;99356.22;;;23.32;50.90
58056;BME280;53159;55.152;36.614;2022-07-18T10:16:02;99356.03;;;23.38;51.05
58056;BME280;53159;55.152;36.614;2022-07-18T10:18:32;99357.25;;;23.28;48.78
58056;BME280;53159;55.152;36.614;2022-07-18T10:21:09;99355.19;;;23.36;48.40
58056;BME280;53159;55.152;36.614;2022-07-18T10:23:48;99348.94;;;23.39;47.08
58056;BME280;53159;55.152;36.614;2022-07-18T10:26:21;99352.19;;;23.20;44.97
58056;BME280;53159;55.152;36.614;2022-07-18T10:29:09;99342.50;;;23.46;45.73
58056;BME280;53159;55.152;36.614;2022-07-18T10:31:38;99343.97;;;23.55;46.57
58056;BME280;53159;55.152;36.614;2022-07-18T10:39:21;99338.38;;;23.37;45.24
58056;BME280;53159;55.152;36.614;2022-07-18T10:47:06;99343.69;;;23.89;49.58
58056;BME280;53159;55.152;36.614;2022-07-18T10:57:39;99336.44;;;23.69;49.48
58056;BME280;53159;55.152;36.614;2022-07-18T11:00:09;99325.06;;;23.65;49.64
58056;BME280;53159;55.152;36.614;2022-07-18T11:02:39;99329.31;;;23.71;49.12
58056;BME280;53159;55.152;36.614;2022-07-18T11:21:19;99367.50;;;23.09;47.08
58056;BME280;53159;55.152;36.614;2022-07-18T11:23:48;99394.56;;;22.27;46.02
58056;BME280;53159;55.152;36.614;2022-07-18T11:26:22;99428.75;;;20.87;51.94
58056;BME280;53159;55.152;36.614;2022-07-18T11:29:04;99457.84;;;19.29;56.77
58056;BME280;53159;55.152;36.614;2022-07-18T11:31:45;99441.00;;;17.88;60.29
58056;BME280;53159;55.152;36.614;2022-07-18T11:34:13;99443.97;;;17.47;63.66
58056;BME280;53159;55.152;36.614;2022-07-18T11:36:42;99444.41;;;16.48;74.35
58056;BME280;53159;55.152;36.614;2022-07-18T11:39:10;99443.63;;;16.11;85.31
58056;BME280;53159;55.152;36.614;2022-07-18T11:41:41;99446.19;;;15.22;96.54
58056;BME280;53159;55.152;36.614;2022-07-18T11:44:19;99421.50;;;14.50;93.32
58056;BME280;53159;55.152;36.614;2022-07-18T11:47:07;99426.59;;;14.24;99.77
58056;BME280;53159;55.152;36.614;2022-07-18T11:50:03;99407.41;;;14.11;100.00
58056;BME280;53159;55.152;36.614;2022-07-18T11:52:58;99410.84;;;14.05;100.00
58056;BME280;53159;55.152;36.614;2022-07-18T11:55:37;99409.97;;;14.05;100.00
58056;BME280;53159;55.152;36.614;2022-07-18T11:58:11;99403.22;;;14.44;100.00
58056;BME280;53159;55.152;36.614;2022-07-18T12:00:39;99410.34;;;14.74;100.00
58056;BME280;53159;55.152;36.614;2022-07-18T12:03:15;99397.34;;;14.91;100.00
58056;BME280;53159;55.152;36.614;2022-07-18T12:05:51;99394.75;;;15.19;100.00
58056;BME280;53159;55.152;36.614;2022-07-18T12:08:32;99409.59;;;15.40;100.00
58056;BME280;53159;55.152;36.614;2022-07-18T12:11:28;99413.09;;;15.55;100.00
58056;BME280;53159;55.152;36.614;2022-07-18T12:16:56;99415.72;;;15.75;100.00
58056;BME280;53159;55.152;36.614;2022-07-18T12:19:34;99415.75;;;15.84;100.00
58056;BME280;53159;55.152;36.614;2022-07-18T12:22:08;99417.47;;;15.96;100.00
58056;BME280;53159;55.152;36.614;2022-07-18T12:24:51;99406.13;;;16.03;100.00
58056;BME280;53159;55.152;36.614;2022-07-18T12:27:22;99400.91;;;15.97;100.00
58056;BME280;53159;55.152;36.614;2022-07-18T12:30:21;99402.63;;;16.09;100.00
58056;BME280;53159;55.152;36.614;2022-07-18T12:35:29;99399.94;;;16.29;100.00
58056;BME280;53159;55.152;36.614;2022-07-18T12:38:06;99396.44;;;16.41;100.00
58056;BME280;53159;55.152;36.614;2022-07-18T12:43:28;99405.03;;;16.68;100.00
58056;BME280;53159;55.152;36.614;2022-07-18T12:45:56;99403.25;;;16.81;100.00
58056;BME280;53159;55.152;36.614;2022-07-18T12:48:28;99396.22;;;16.90;100.00
58056;BME280;53159;55.152;36.614;2022-07-18T12:51:02;99400.50;;;17.12;100.00
58056;BME280;53159;55.152;36.614;2022-07-18T12:53:31;99400.38;;;17.27;100.00
58056;BME280;53159;55.152;36.614;2022-07-18T12:55:58;99395.88;;;17.43;100.00
58056;BME280;53159;55.152;36.614;2022-07-18T12:58:25;99401.00;;;17.60;100.00
58056;BME280;53159;55.152;36.614;2022-07-18T13:00:52;99400.03;;;17.73;100.00
58056;BME280;53159;55.152;36.614;2022-07-18T13:03:22;99399.84;;;17.89;100.00
58056;BME280;53159;55.152;36.614;2022-07-18T14:31:18;99402.16;;;18.25;93.09
58056;BME280;53159;55.152;36.614;2022-07-18T14:33:47;99407.72;;;17.95;94.11
58056;BME280;53159;55.152;36.614;2022-07-18T14:36:15;99422.66;;;17.87;95.31
58056;BME280;53159;55.152;36.614;2022-07-18T14:38:42;99414.81;;;17.82;94.78
58056;BME280;53159;55.152;36.614;2022-07-18T14:41:10;99425.22;;;17.93;95.66
58056;BME280;53159;55.152;36.614;2022-07-18T14:43:40;99420.81;;;17.98;96.59
58056;BME280;53159;55.152;36.614;2022-07-18T14:46:07;99426.97;;;17.97;94.95
58056;BME280;53159;55.152;36.614;2022-07-18T14:48:33;99429.53;;;18.03;96.35
58056;BME280;53159;55.152;36.614;2022-07-18T14:51:00;99424.34;;;17.96;95.17
58056;BME280;53159;55.152;36.614;2022-07-18T14:53:31;99427.84;;;17.96;95.05
58056;BME280;53159;55.152;36.614;2022-07-18T14:56:01;99422.59;;;17.92;94.32
58056;BME280;53159;55.152;36.614;2022-07-18T14:58:28;99418.19;;;18.00;95.12
58056;BME280;53159;55.152;36.614;2022-07-18T15:00:55;99413.78;;;18.00;94.98
58056;BME280;53159;55.152;36.614;2022-07-18T15:03:23;99413.69;;;18.11;93.40